Time;durP1;ratioP1;P1;durP2;ratioP2;P2;SDS_P1;SDS_P2;PMS_P1;PMS_P2;Temp;Humidity;BMP_temperature;BMP_pressure;BME280_temperature;BME280_humidity;BME280_pressure;Samples;Min_cycle;Max_cycle;Signal;HPM_P1;HPM_P2
2022/05/12 00:02:12;;;;;;;7.43;2.80;;;22.10;57.80;;;;;;5051042;28;20060;-68
2022/05/12 00:04:39;;;;;;;7.97;2.58;;;22.00;57.70;;;;;;5053550;28;20025;-67
2022/05/12 00:07:06;;;;;;;6.70;2.55;;;21.90;57.80;;;;;;5038025;28;20299;-67
2022/05/12 00:09:34;;;;;;;4.07;2.42;;;22.00;57.10;;;;;;5046121;28;20045;-67
2022/05/12 00:12:00;;;;;;;5.10;2.65;;;22.00;57.10;;;;;;5061259;28;20036;-67
2022/05/12 00:14:38;;;;;;;5.10;2.42;;;21.90;56.30;;;;;;5051208;28;20044;-68
2022/05/12 00:17:13;;;;;;;10.20;3.03;;;21.90;56.00;;;;;;5034399;28;20436;-69
2022/05/12 00:19:39;;;;;;;4.65;2.33;;;21.90;56.00;;;;;;5045996;28;20025;-67
2022/05/12 00:22:06;;;;;;;8.70;3.17;;;21.80;56.10;;;;;;5052962;28;20060;-68
2022/05/12 00:24:32;;;;;;;5.60;2.78;;;21.70;56.50;;;;;;5050917;28;20025;-67
2022/05/12 00:26:58;;;;;;;6.93;1.90;;;21.50;56.40;;;;;;5049201;28;20024;-68
2022/05/12 00:29:25;;;;;;;5.82;2.20;;;21.40;56.40;;;;;;5049056;28;20025;-67
2022/05/12 00:31:51;;;;;;;5.68;2.35;;;21.30;57.00;;;;;;5049882;28;20099;-67
2022/05/12 00:34:21;;;;;;;4.30;2.28;;;21.40;56.40;;;;;;5046356;28;20415;-68
2022/05/12 00:36:47;;;;;;;7.85;2.65;;;21.40;56.40;;;;;;5036710;28;20432;-67
2022/05/12 00:39:14;;;;;;;5.75;2.28;;;21.30;56.90;;;;;;5047933;28;20108;-68
2022/05/12 00:41:40;;;;;;;11.65;2.40;;;21.30;56.70;;;;;;5064847;28;20021;-67
2022/05/12 00:44:10;;;;;;;6.00;2.40;;;21.30;57.00;;;;;;5050676;28;20017;-67
2022/05/12 00:46:41;;;;;;;6.68;2.05;;;21.20;56.90;;;;;;5050170;28;20458;-67
2022/05/12 00:49:18;;;;;;;6.93;2.15;;;21.20;56.90;;;;;;5034749;28;20021;-67
2022/05/12 00:51:51;;;;;;;5.40;2.30;;;21.10;57.20;;;;;;5056922;28;20031;-67
2022/05/12 00:54:28;;;;;;;5.00;2.17;;;21.00;57.30;;;;;;5050385;28;20021;-68
2022/05/12 00:56:54;;;;;;;6.25;2.50;;;20.90;57.20;;;;;;5056801;28;20017;-67
2022/05/12 00:59:31;;;;;;;5.20;2.30;;;20.90;57.60;;;;;;5053924;28;20027;-67
2022/05/12 01:01:57;;;;;;;5.32;2.25;;;20.80;57.50;;;;;;5057289;28;20037;-67
2022/05/12 01:04:24;;;;;;;4.15;2.03;;;20.70;57.90;;;;;;5054426;28;20025;-67
2022/05/12 01:06:52;;;;;;;3.90;1.90;;;20.50;58.20;;;;;;5055147;28;20025;-67
2022/05/12 01:09:20;;;;;;;5.55;2.15;;;20.40;59.40;;;;;;5052185;28;20431;-67
2022/05/12 01:11:50;;;;;;;7.03;2.70;;;20.10;60.20;;;;;;5055806;28;20337;-67
2022/05/12 01:14:16;;;;;;;5.22;2.17;;;20.00;60.00;;;;;;5053384;28;20017;-67
2022/05/12 01:16:42;;;;;;;4.80;2.08;;;20.00;59.60;;;;;;5054008;28;20025;-67
2022/05/12 01:19:14;;;;;;;6.25;2.47;;;19.90;60.30;;;;;;5053081;28;20436;-67
2022/05/12 01:21:41;;;;;;;5.18;2.45;;;19.80;60.30;;;;;;5035753;28;20024;-67
2022/05/12 01:24:08;;;;;;;6.13;2.20;;;19.80;60.70;;;;;;5052198;28;20071;-67
2022/05/12 01:26:37;;;;;;;6.70;2.30;;;19.70;61.10;;;;;;5053100;28;20052;-67
2022/05/12 01:29:04;;;;;;;4.80;2.00;;;19.50;61.70;;;;;;5035550;28;20036;-67
2022/05/12 01:31:31;;;;;;;11.10;2.35;;;19.30;62.00;;;;;;5051813;28;20032;-68
2022/05/12 01:34:00;;;;;;;7.22;2.20;;;19.30;62.10;;;;;;5048718;28;20033;-67
2022/05/12 01:36:26;;;;;;;5.70;2.60;;;19.20;62.70;;;;;;5051848;28;20164;-67
2022/05/12 01:38:52;;;;;;;6.38;2.30;;;19.10;62.40;;;;;;5057229;28;20024;-67
2022/05/12 01:41:19;;;;;;;4.75;2.15;;;19.10;62.90;;;;;;5050880;28;20028;-67
2022/05/12 01:43:45;;;;;;;4.20;2.40;;;19.00;62.70;;;;;;5053863;28;20029;-66
2022/05/12 01:46:11;;;;;;;5.18;2.35;;;19.10;62.90;;;;;;5054436;28;20075;-67
2022/05/12 01:48:38;;;;;;;6.68;2.15;;;19.00;63.20;;;;;;5052131;28;20090;-67
2022/05/12 01:51:09;;;;;;;5.38;1.98;;;19.10;62.90;;;;;;5052011;28;20044;-67
2022/05/12 01:53:35;;;;;;;5.88;2.30;;;19.30;62.20;;;;;;5050002;28;20033;-67
2022/05/12 01:56:03;;;;;;;5.55;2.25;;;19.40;62.10;;;;;;5052508;28;20033;-67
2022/05/12 01:58:31;;;;;;;7.70;2.35;;;19.40;62.40;;;;;;5057619;28;20029;-67
2022/05/12 02:00:57;;;;;;;5.47;2.40;;;19.30;62.50;;;;;;5050337;28;20132;-69
2022/05/12 02:03:23;;;;;;;5.78;2.85;;;19.30;62.70;;;;;;5051674;28;20123;-68
2022/05/12 02:05:49;;;;;;;7.00;2.33;;;19.20;63.20;;;;;;5065300;28;20037;-68
2022/05/12 02:08:18;;;;;;;5.95;2.45;;;19.20;63.10;;;;;;5059304;28;20037;-68
2022/05/12 02:10:48;;;;;;;4.05;2.20;;;19.20;63.40;;;;;;5052112;28;20767;-67
2022/05/12 02:13:15;;;;;;;7.20;2.33;;;19.20;63.70;;;;;;5054279;28;20713;-67
2022/05/12 02:15:42;;;;;;;4.85;2.53;;;19.20;63.70;;;;;;5055782;28;20025;-66
2022/05/12 02:18:08;;;;;;;4.93;2.42;;;19.20;63.60;;;;;;5051456;28;20440;-68
2022/05/12 02:20:35;;;;;;;7.75;2.50;;;19.10;63.90;;;;;;5052159;28;20036;-67
2022/05/12 02:23:01;;;;;;;4.88;2.17;;;19.10;63.90;;;;;;5048583;28;20040;-67
2022/05/12 02:25:27;;;;;;;7.43;2.42;;;19.10;63.90;;;;;;5046439;28;20326;-68
2022/05/12 02:27:55;;;;;;;9.35;2.70;;;19.00;64.40;;;;;;5047799;28;20025;-67
2022/05/12 02:30:27;;;;;;;8.27;2.67;;;19.20;64.40;;;;;;5052999;28;20114;-67
2022/05/12 02:32:57;;;;;;;7.47;2.60;;;19.20;64.30;;;;;;5053908;28;20115;-67
2022/05/12 02:35:24;;;;;;;4.63;2.20;;;19.20;64.40;;;;;;5047083;28;20033;-67
2022/05/12 02:37:50;;;;;;;6.32;2.60;;;19.00;64.80;;;;;;5048508;28;20485;-67
2022/05/12 02:40:19;;;;;;;5.68;2.40;;;18.90;65.30;;;;;;5049664;28;20048;-67
2022/05/12 02:42:45;;;;;;;8.15;2.53;;;18.80;65.60;;;;;;5057379;28;20028;-66
2022/05/12 02:45:13;;;;;;;6.57;2.65;;;18.90;65.40;;;;;;5055681;28;20021;-67
2022/05/12 02:47:39;;;;;;;4.72;2.17;;;19.00;65.20;;;;;;5055733;28;20142;-67
2022/05/12 02:50:07;;;;;;;6.82;2.40;;;18.90;65.40;;;;;;5058371;28;20032;-67
2022/05/12 02:52:33;;;;;;;6.55;2.22;;;18.80;65.70;;;;;;5052489;28;20029;-67
2022/05/12 02:55:00;;;;;;;7.85;2.17;;;18.60;66.00;;;;;;5053155;28;20330;-66
2022/05/12 02:57:28;;;;;;;6.22;2.35;;;18.50;66.50;;;;;;5052147;28;20033;-67
2022/05/12 02:59:55;;;;;;;7.15;2.45;;;18.50;66.60;;;;;;5049185;28;20318;-67
2022/05/12 03:02:22;;;;;;;5.95;2.63;;;18.50;66.80;;;;;;5047326;28;20620;-67
2022/05/12 03:04:48;;;;;;;5.65;2.70;;;18.40;66.90;;;;;;5048099;28;20096;-67
2022/05/12 03:07:14;;;;;;;7.97;2.70;;;18.30;67.30;;;;;;5047464;28;20025;-67
2022/05/12 03:09:41;;;;;;;5.70;2.40;;;18.20;67.70;;;;;;5055839;28;20028;-67
2022/05/12 03:12:07;;;;;;;7.30;2.40;;;18.10;68.10;;;;;;5047554;28;20037;-67
2022/05/12 03:14:33;;;;;;;4.80;2.38;;;18.00;68.40;;;;;;5049914;28;20055;-67
2022/05/12 03:16:58;;;;;;;5.78;2.40;;;17.90;69.00;;;;;;5050329;28;20114;-67
2022/05/12 03:19:25;;;;;;;7.80;2.92;;;17.80;69.30;;;;;;5050081;28;20024;-67
2022/05/12 03:21:53;;;;;;;5.22;2.53;;;17.70;70.10;;;;;;5052326;28;20040;-68
2022/05/12 03:24:19;;;;;;;6.93;2.60;;;17.60;70.00;;;;;;5053680;28;20029;-67
2022/05/12 03:26:47;;;;;;;6.88;2.88;;;17.50;70.30;;;;;;5052114;28;20318;-67
2022/05/12 03:29:12;;;;;;;8.90;2.60;;;17.50;70.40;;;;;;5051847;28;20639;-67
2022/05/12 03:31:38;;;;;;;8.00;2.65;;;17.40;70.80;;;;;;5052545;28;20039;-67
2022/05/12 03:34:06;;;;;;;6.63;2.88;;;17.40;70.70;;;;;;5050374;28;20095;-67
2022/05/12 03:36:35;;;;;;;5.63;2.95;;;17.30;71.00;;;;;;5050997;28;20028;-67
2022/05/12 03:39:05;;;;;;;10.95;3.00;;;17.30;71.40;;;;;;5052201;28;20075;-67
2022/05/12 03:41:31;;;;;;;9.73;2.78;;;17.30;71.00;;;;;;5051708;28;20074;-67
2022/05/12 03:46:44;;;;;;;5.70;2.67;;;17.30;71.70;;;;;;5052319;28;20130;-66
2022/05/12 03:49:10;;;;;;;7.57;2.80;;;17.20;71.90;;;;;;5050296;28;20025;-67
2022/05/12 03:51:36;;;;;;;5.25;2.80;;;17.10;72.40;;;;;;5050785;28;20032;-67
2022/05/12 03:54:03;;;;;;;6.03;2.72;;;17.10;72.30;;;;;;5050338;28;20449;-67
2022/05/12 03:56:30;;;;;;;7.38;2.63;;;17.10;72.50;;;;;;5047667;28;20036;-68
2022/05/12 03:58:56;;;;;;;10.55;2.83;;;17.10;72.30;;;;;;5054184;28;20055;-67
2022/05/12 04:01:22;;;;;;;9.18;2.80;;;17.10;72.60;;;;;;5049112;28;20045;-67
2022/05/12 04:03:48;;;;;;;5.82;2.53;;;17.10;73.00;;;;;;5049244;28;20099;-67
2022/05/12 04:06:14;;;;;;;6.20;2.60;;;17.10;73.10;;;;;;5041885;28;20028;-67
2022/05/12 04:08:40;;;;;;;4.93;2.50;;;17.20;73.20;;;;;;5035138;28;20025;-67
2022/05/12 04:11:07;;;;;;;7.82;3.20;;;17.30;72.80;;;;;;5050255;28;20037;-67
2022/05/12 04:13:33;;;;;;;5.30;2.28;;;17.40;72.90;;;;;;5052278;28;20109;-67
2022/05/12 04:15:59;;;;;;;5.85;2.65;;;17.40;72.70;;;;;;5047034;28;20025;-67
2022/05/12 04:18:25;;;;;;;6.57;3.00;;;17.50;72.60;;;;;;5047658;28;20040;-68
2022/05/12 04:20:52;;;;;;;8.27;2.72;;;17.60;72.30;;;;;;5047034;28;20052;-67
2022/05/12 04:23:18;;;;;;;5.97;2.50;;;17.70;71.80;;;;;;5051954;28;20418;-68
2022/05/12 04:25:47;;;;;;;7.72;2.97;;;17.70;72.10;;;;;;5049308;28;20036;-67
2022/05/12 04:28:13;;;;;;;6.32;2.60;;;17.80;72.20;;;;;;5049959;28;20013;-67
2022/05/12 04:30:41;;;;;;;5.80;2.63;;;17.80;72.00;;;;;;5050701;28;20029;-67
2022/05/12 04:35:51;;;;;;;16.63;3.15;;;17.80;72.10;;;;;;5046130;28;20060;-67
2022/05/12 04:38:20;;;;;;;6.65;2.97;;;17.70;72.70;;;;;;5051912;28;20065;-67
2022/05/12 04:40:51;;;;;;;8.32;3.30;;;17.60;73.00;;;;;;5047864;28;20422;-67
2022/05/12 04:43:18;;;;;;;7.18;3.10;;;17.60;73.40;;;;;;5049606;28;20033;-67
2022/05/12 04:45:43;;;;;;;5.70;2.80;;;17.40;74.10;;;;;;5050778;28;20036;-67
2022/05/12 04:48:09;;;;;;;6.90;2.92;;;17.40;74.30;;;;;;5050883;28;20086;-66
2022/05/12 04:50:41;;;;;;;5.55;3.10;;;17.40;74.50;;;;;;5050412;28;20108;-67
2022/05/12 04:53:08;;;;;;;9.27;3.13;;;17.40;74.90;;;;;;5049827;28;20070;-66
2022/05/12 04:55:38;;;;;;;9.18;2.67;;;17.40;75.10;;;;;;5047700;28;20072;-68
2022/05/12 04:58:04;;;;;;;7.57;2.70;;;17.30;75.30;;;;;;5047966;28;20025;-68
2022/05/12 05:00:37;;;;;;;6.57;3.17;;;17.30;76.20;;;;;;5042798;28;20046;-68
2022/05/12 05:03:04;;;;;;;8.15;3.72;;;17.30;75.80;;;;;;5030290;28;20086;-66
2022/05/12 05:05:31;;;;;;;5.55;2.85;;;17.20;76.30;;;;;;5037252;28;20424;-67
2022/05/12 05:07:59;;;;;;;6.95;2.70;;;17.20;76.30;;;;;;5031261;28;20033;-67
2022/05/12 05:10:27;;;;;;;8.32;3.30;;;17.20;76.90;;;;;;5029241;28;20022;-67
2022/05/12 05:12:53;;;;;;;8.73;3.35;;;17.30;75.90;;;;;;5025056;28;20038;-68
2022/05/12 05:15:21;;;;;;;9.93;3.17;;;17.50;75.70;;;;;;5031633;28;20030;-67
2022/05/12 05:17:47;;;;;;;8.18;3.05;;;17.80;75.40;;;;;;5043399;28;20120;-67
2022/05/12 05:20:17;;;;;;;6.20;3.03;;;18.00;74.70;;;;;;5028353;28;20497;-67
2022/05/12 05:22:44;;;;;;;5.13;2.90;;;18.00;75.10;;;;;;5030847;28;20030;-67
2022/05/12 05:25:10;;;;;;;8.88;3.05;;;17.90;75.20;;;;;;5032978;28;20029;-67
2022/05/12 05:27:37;;;;;;;9.57;3.38;;;17.90;75.00;;;;;;5037337;28;20319;-67
2022/05/12 05:30:05;;;;;;;8.93;3.25;;;17.90;75.10;;;;;;5034687;28;20068;-67
2022/05/12 05:32:30;;;;;;;6.97;3.00;;;18.00;75.00;;;;;;5039588;28;20028;-67
2022/05/12 05:34:56;;;;;;;7.50;2.88;;;18.10;75.00;;;;;;5033818;28;20087;-67
2022/05/12 05:37:22;;;;;;;6.40;3.42;;;18.10;74.80;;;;;;5042477;28;20789;-67
2022/05/12 05:39:49;;;;;;;7.78;2.92;;;18.20;74.90;;;;;;5038355;28;20036;-67
2022/05/12 05:42:17;;;;;;;7.28;3.22;;;18.40;74.50;;;;;;5037299;28;20295;-67
2022/05/12 05:44:42;;;;;;;9.43;3.25;;;18.60;74.00;;;;;;5036229;28;20025;-67
2022/05/12 05:47:09;;;;;;;7.65;3.15;;;18.70;74.00;;;;;;5035730;28;20038;-67
2022/05/12 05:49:36;;;;;;;7.35;2.97;;;19.00;73.30;;;;;;5032541;28;20029;-67
2022/05/12 05:54:46;;;;;;;7.28;2.75;;;19.30;73.00;;;;;;5040164;28;20138;-67
2022/05/12 05:57:12;;;;;;;6.47;2.88;;;19.60;72.60;;;;;;5036381;28;20048;-67
2022/05/12 05:59:39;;;;;;;8.27;2.80;;;19.80;71.50;;;;;;5031951;28;20410;-67
2022/05/12 06:02:06;;;;;;;8.15;3.08;;;19.80;72.00;;;;;;5031712;28;20415;-68
2022/05/12 06:04:31;;;;;;;11.60;3.35;;;20.00;72.00;;;;;;5030673;28;20497;-67
2022/05/12 06:06:57;;;;;;;8.38;3.15;;;19.90;71.20;;;;;;5032717;28;20014;-67
2022/05/12 06:09:24;;;;;;;10.85;3.35;;;19.80;71.40;;;;;;5034501;28;20407;-67
2022/05/12 06:11:50;;;;;;;10.32;2.75;;;19.70;72.50;;;;;;5033596;28;20060;-67
2022/05/12 06:14:15;;;;;;;8.80;2.85;;;19.90;72.10;;;;;;5032192;28;20030;-67
2022/05/12 06:16:41;;;;;;;15.55;4.13;;;20.10;71.90;;;;;;5032729;28;20418;-67
2022/05/12 06:19:07;;;;;;;6.22;3.60;;;20.30;70.90;;;;;;5033573;28;20026;-67
2022/05/12 06:21:38;;;;;;;6.32;3.17;;;20.40;71.50;;;;;;5015906;28;20067;-66
2022/05/12 06:24:05;;;;;;;6.97;3.83;;;20.40;70.60;;;;;;5033356;28;20040;-67
2022/05/12 06:26:30;;;;;;;7.28;3.25;;;20.10;71.40;;;;;;5032684;28;20465;-67
2022/05/12 06:28:58;;;;;;;7.97;3.58;;;19.80;72.80;;;;;;5033190;28;20021;-67
2022/05/12 06:31:30;;;;;;;8.82;3.13;;;19.80;73.10;;;;;;5032372;28;20418;-67
2022/05/12 06:33:57;;;;;;;7.90;3.40;;;19.70;73.10;;;;;;5028792;28;20029;-67
2022/05/12 06:36:22;;;;;;;9.77;3.80;;;19.60;73.30;;;;;;5033072;28;20038;-67
2022/05/12 06:38:49;;;;;;;8.95;3.63;;;19.50;73.80;;;;;;5033420;28;20032;-67
2022/05/12 06:41:15;;;;;;;10.32;3.75;;;19.40;74.50;;;;;;5014108;28;20029;-67
2022/05/12 06:43:45;;;;;;;7.53;3.53;;;19.40;74.40;;;;;;5031175;28;20047;-67
2022/05/12 06:46:15;;;;;;;8.68;3.83;;;19.30;75.20;;;;;;5034475;28;20036;-67
2022/05/12 06:48:42;;;;;;;8.35;3.28;;;19.30;74.80;;;;;;5018496;28;20030;-67
2022/05/12 06:51:09;;;;;;;8.70;3.83;;;19.20;74.90;;;;;;5037020;28;20017;-67
2022/05/12 06:53:34;;;;;;;8.10;3.63;;;19.20;75.60;;;;;;5019885;28;20080;-67
2022/05/12 06:56:00;;;;;;;9.88;3.75;;;19.50;75.30;;;;;;5039455;28;20367;-66
2022/05/12 06:58:26;;;;;;;7.85;3.83;;;19.40;75.20;;;;;;5039161;28;20032;-67
2022/05/12 07:00:51;;;;;;;7.53;3.50;;;19.40;75.00;;;;;;5047063;28;20048;-67
2022/05/12 07:03:19;;;;;;;8.05;3.20;;;19.40;74.50;;;;;;5053879;28;20032;-67
2022/05/12 07:05:45;;;;;;;11.93;4.80;;;19.50;75.10;;;;;;5057015;28;20033;-67
2022/05/12 07:08:11;;;;;;;8.93;3.20;;;19.50;74.90;;;;;;5056053;28;20033;-67
2022/05/12 07:10:38;;;;;;;8.32;3.70;;;19.70;75.10;;;;;;5056943;28;20025;-67
2022/05/12 07:13:04;;;;;;;9.02;3.40;;;20.10;74.70;;;;;;5057857;28;20092;-67
2022/05/12 07:15:30;;;;;;;11.68;3.67;;;20.10;72.90;;;;;;5056988;28;20365;-67
2022/05/12 07:17:58;;;;;;;6.88;3.50;;;20.10;73.50;;;;;;5057154;28;20020;-67
2022/05/12 07:28:41;;;;;;;;;;;20.20;73.40;;;;;;5056894;28;20372;-67
2022/05/12 07:31:09;;;;;;;10.68;4.05;;;20.20;73.40;;;;;;5057076;28;19909;-67
2022/05/12 07:33:45;;;;;;;9.73;3.45;;;20.30;73.70;;;;;;5057942;28;20029;-67
2022/05/12 07:36:33;;;;;;;8.95;3.33;;;20.70;73.60;;;;;;5058023;28;20034;-67
2022/05/12 07:39:01;;;;;;;10.10;3.28;;;21.10;72.30;;;;;;5057175;28;20041;-66
2022/05/12 07:41:27;;;;;;;10.38;3.28;;;21.70;70.60;;;;;;5039172;28;20523;-66
2022/05/12 07:43:54;;;;;;;8.98;3.53;;;22.10;69.20;;;;;;5058286;28;20056;-66
2022/05/12 07:46:25;;;;;;;9.95;4.13;;;22.20;69.70;;;;;;5056799;28;20025;-66
2022/05/12 07:48:51;;;;;;;5.25;2.80;;;22.40;69.50;;;;;;5057639;28;20044;-67
2022/05/12 07:51:18;;;;;;;9.35;3.63;;;22.40;68.90;;;;;;5057477;28;20361;-68
2022/05/12 07:53:48;;;;;;;10.23;3.95;;;22.50;67.90;;;;;;5058483;28;20048;-69
2022/05/12 07:56:18;;;;;;;7.32;3.33;;;22.10;68.30;;;;;;5056732;28;20032;-68
2022/05/12 07:58:44;;;;;;;9.57;3.28;;;22.10;69.20;;;;;;5058454;28;20057;-68
2022/05/12 08:01:12;;;;;;;7.65;3.63;;;22.20;68.70;;;;;;5055936;28;20075;-67
2022/05/12 08:03:38;;;;;;;10.13;3.65;;;22.30;68.50;;;;;;5057190;28;20083;-67
2022/05/12 08:06:04;;;;;;;7.53;3.13;;;22.00;69.30;;;;;;5057407;28;20024;-67
2022/05/12 08:08:32;;;;;;;6.20;3.63;;;22.00;70.00;;;;;;5058161;28;20323;-67
2022/05/12 08:10:58;;;;;;;7.85;3.60;;;21.90;69.60;;;;;;5057315;28;20032;-67
2022/05/12 08:13:25;;;;;;;9.10;3.63;;;21.80;69.90;;;;;;5058402;28;20037;-67
2022/05/12 08:15:52;;;;;;;7.75;3.58;;;21.40;70.70;;;;;;5056532;28;20040;-67
2022/05/12 08:18:21;;;;;;;6.95;3.35;;;21.50;71.50;;;;;;5056137;28;20021;-67
2022/05/12 08:20:48;;;;;;;7.40;3.90;;;21.40;71.30;;;;;;5057109;28;20330;-67
2022/05/12 08:23:14;;;;;;;10.52;3.40;;;21.10;71.60;;;;;;5040211;28;20025;-67
2022/05/12 08:25:41;;;;;;;6.25;3.60;;;21.00;72.10;;;;;;5057386;28;20029;-67
2022/05/12 08:28:07;;;;;;;12.50;4.93;;;21.20;71.40;;;;;;5058108;28;20041;-67
2022/05/12 08:30:33;;;;;;;7.75;3.58;;;21.10;71.40;;;;;;5056071;28;20017;-67
2022/05/12 08:32:59;;;;;;;7.28;3.60;;;20.90;72.40;;;;;;5058015;28;20355;-66
2022/05/12 08:35:26;;;;;;;8.43;3.97;;;21.20;72.10;;;;;;4970095;28;20036;-67
2022/05/12 08:37:52;;;;;;;7.35;3.47;;;21.40;71.50;;;;;;5057757;28;20326;-67
2022/05/12 08:40:55;;;;;;;9.35;3.60;;;21.30;72.30;;;;;;5054987;28;20033;-67
2022/05/12 08:43:41;;;;;;;6.85;3.80;;;21.30;71.60;;;;;;5055491;28;20068;-67
2022/05/12 08:46:10;;;;;;;11.23;3.67;;;21.20;71.40;;;;;;5057562;28;20021;-67
2022/05/12 08:48:42;;;;;;;8.40;3.90;;;21.60;71.90;;;;;;5056438;28;20013;-67
2022/05/12 08:51:15;;;;;;;8.00;3.97;;;22.00;71.00;;;;;;5057470;28;20056;-68
2022/05/12 08:53:50;;;;;;;8.13;3.45;;;22.10;70.40;;;;;;5057374;28;20029;-67
2022/05/12 08:56:21;;;;;;;8.82;3.53;;;22.00;70.90;;;;;;5056642;28;20029;-67
2022/05/12 08:58:47;;;;;;;7.32;3.30;;;22.20;70.80;;;;;;5057591;28;20044;-67
2022/05/12 09:01:51;;;;;;;7.32;3.72;;;22.60;69.80;;;;;;5057146;28;20057;-67
2022/05/12 09:04:42;;;;;;;8.13;3.13;;;23.50;68.30;;;;;;5055980;28;20063;-67
2022/05/12 09:07:22;;;;;;;7.75;3.50;;;23.80;67.40;;;;;;5044051;28;20029;-67
2022/05/12 09:10:09;;;;;;;9.90;4.18;;;23.40;67.80;;;;;;5055488;28;20071;-67
2022/05/12 09:12:49;;;;;;;9.13;3.78;;;23.20;67.40;;;;;;5056311;28;20113;-67
2022/05/12 09:15:33;;;;;;;13.23;3.70;;;23.40;67.90;;;;;;5056338;28;20029;-67
2022/05/12 09:18:26;;;;;;;9.63;3.95;;;23.30;67.60;;;;;;5056960;28;20028;-67
2022/05/12 09:20:52;;;;;;;9.90;3.95;;;24.00;67.60;;;;;;5056860;28;20025;-67
2022/05/12 09:23:18;;;;;;;10.50;4.82;;;24.30;65.10;;;;;;5056932;28;20063;-67
2022/05/12 09:25:47;;;;;;;6.35;3.03;;;24.30;66.00;;;;;;5056109;28;20614;-67
2022/05/12 09:28:33;;;;;;;10.55;3.17;;;24.70;66.50;;;;;;5056893;28;20033;-67
2022/05/12 09:31:15;;;;;;;8.68;3.58;;;25.10;64.10;;;;;;5056855;28;20090;-67
2022/05/12 09:33:41;;;;;;;9.85;3.75;;;24.40;65.30;;;;;;5055552;28;20049;-67
2022/05/12 09:36:13;;;;;;;7.60;3.78;;;24.50;66.00;;;;;;5056286;28;20037;-67
2022/05/12 09:38:45;;;;;;;6.57;3.63;;;25.30;64.60;;;;;;5054699;28;20347;-67
2022/05/12 09:41:21;;;;;;;13.00;4.18;;;25.60;63.40;;;;;;5054616;28;20035;-68
2022/05/12 09:43:53;;;;;;;7.25;3.38;;;25.40;63.90;;;;;;5056439;28;20079;-67
2022/05/12 09:46:31;;;;;;;8.40;3.88;;;25.30;64.00;;;;;;5054804;28;20407;-67
2022/05/12 09:49:21;;;;;;;6.88;3.78;;;25.70;64.50;;;;;;5050710;28;20028;-67
2022/05/12 09:51:47;;;;;;;9.25;4.15;;;25.70;64.00;;;;;;5044198;28;20434;-67
2022/05/12 09:54:31;;;;;;;8.43;4.70;;;25.50;63.70;;;;;;5055934;28;20043;-67
2022/05/12 09:57:12;;;;;;;8.20;4.40;;;25.20;65.10;;;;;;5056185;28;20098;-67
2022/05/12 09:59:38;;;;;;;9.55;4.53;;;25.60;64.50;;;;;;5056382;28;20033;-67
2022/05/12 10:08:25;;;;;;;11.10;4.90;;;25.00;64.90;;;;;;5036292;28;20056;-67
2022/05/12 10:11:06;;;;;;;11.73;5.13;;;24.50;65.40;;;;;;5048627;28;20064;-67
2022/05/12 10:13:41;;;;;;;7.97;5.45;;;24.70;65.40;;;;;;5054880;28;20147;-67
2022/05/12 10:16:08;;;;;;;11.50;5.10;;;24.50;66.20;;;;;;5055586;28;20044;-67
2022/05/12 10:18:45;;;;;;;11.32;5.43;;;24.40;67.80;;;;;;5053550;28;20028;-67
2022/05/12 10:21:47;;;;;;;10.77;5.88;;;24.70;65.90;;;;;;5051882;28;20033;-67
2022/05/12 10:24:31;;;;;;;11.70;5.72;;;24.30;66.30;;;;;;5049942;28;20346;-67
2022/05/12 10:27:13;;;;;;;8.18;4.95;;;24.20;65.70;;;;;;5038398;28;20017;-67
2022/05/12 10:30:08;;;;;;;9.40;5.28;;;24.00;66.90;;;;;;5044675;28;20497;-67
2022/05/12 10:33:02;;;;;;;8.18;5.57;;;24.40;66.80;;;;;;5026622;28;20350;-67
2022/05/12 10:35:41;;;;;;;8.63;5.20;;;24.70;64.60;;;;;;5051131;28;20318;-67
2022/05/12 10:38:19;;;;;;;12.05;5.50;;;24.80;66.20;;;;;;5054200;28;20037;-66
2022/05/12 10:40:54;;;;;;;8.50;5.50;;;25.20;64.40;;;;;;5054881;28;20441;-66
2022/05/12 10:44:02;;;;;;;8.18;5.15;;;24.70;64.90;;;;;;5055617;28;20151;-66
2022/05/12 10:46:59;;;;;;;10.32;5.60;;;24.40;66.20;;;;;;5045865;28;20029;-68
2022/05/12 10:49:55;;;;;;;10.63;5.57;;;24.90;65.60;;;;;;5036388;28;20024;-68
2022/05/12 10:52:30;;;;;;;9.93;5.45;;;25.00;64.80;;;;;;5048134;28;20044;-68
2022/05/12 10:55:25;;;;;;;9.48;5.32;;;25.00;65.00;;;;;;5055134;28;20322;-67
2022/05/12 10:58:03;;;;;;;10.63;5.45;;;25.60;64.70;;;;;;5054663;28;20025;-67
2022/05/12 11:00:35;;;;;;;16.45;5.38;;;25.90;64.10;;;;;;5054782;28;20045;-67
2022/05/12 11:03:11;;;;;;;9.13;5.40;;;25.50;63.70;;;;;;5054470;28;20055;-67
2022/05/12 11:05:43;;;;;;;9.50;5.82;;;25.30;64.60;;;;;;5055427;28;20056;-67
2022/05/12 11:08:33;;;;;;;9.55;4.97;;;25.30;64.30;;;;;;5054694;28;20474;-67
2022/05/12 11:11:02;;;;;;;10.50;5.18;;;25.40;65.20;;;;;;5054593;28;20078;-67
2022/05/12 11:13:41;;;;;;;7.88;5.45;;;25.30;64.30;;;;;;5054646;28;20458;-67
2022/05/12 11:16:22;;;;;;;10.05;5.47;;;24.90;64.30;;;;;;5054820;28;20041;-67
2022/05/12 11:18:54;;;;;;;10.02;4.80;;;25.10;65.10;;;;;;5053404;28;20078;-67
2022/05/12 11:21:25;;;;;;;9.32;5.40;;;25.60;63.20;;;;;;5054435;28;20056;-67
2022/05/12 11:24:12;;;;;;;9.55;5.15;;;25.90;63.50;;;;;;5053940;28;20025;-67
2022/05/12 11:26:54;;;;;;;9.20;5.30;;;26.10;63.20;;;;;;5055197;28;20025;-67
2022/05/12 11:29:45;;;;;;;10.48;5.40;;;26.00;63.60;;;;;;5053742;28;20039;-67
2022/05/12 11:32:21;;;;;;;9.02;4.88;;;25.90;63.10;;;;;;5054300;28;20025;-67
2022/05/12 11:34:54;;;;;;;9.82;4.55;;;25.80;63.90;;;;;;5057762;28;20025;-67
2022/05/12 11:37:43;;;;;;;7.65;4.72;;;26.20;63.70;;;;;;5058051;28;20021;-67
2022/05/12 11:40:33;;;;;;;10.65;4.80;;;25.90;62.90;;;;;;5057289;28;20029;-67
2022/05/12 11:46:21;;;;;;;8.10;5.07;;;26.40;63.10;;;;;;5055963;28;20544;-67
2022/05/12 11:49:00;;;;;;;8.15;5.22;;;26.60;63.10;;;;;;5056151;28;20395;-67
2022/05/12 11:52:11;;;;;;;8.38;5.45;;;26.60;62.10;;;;;;5056274;28;20021;-67
2022/05/12 11:54:59;;;;;;;9.65;5.35;;;26.90;63.10;;;;;;5045582;28;20044;-67
2022/05/12 11:57:32;;;;;;;11.82;5.85;;;26.50;61.60;;;;;;5056083;28;20025;-67
2022/05/12 12:00:03;;;;;;;9.18;4.85;;;26.30;62.00;;;;;;5056741;28;20021;-67
2022/05/12 12:02:29;;;;;;;7.43;4.43;;;26.10;62.90;;;;;;5053571;28;20021;-67
2022/05/12 12:05:33;;;;;;;13.30;4.78;;;26.50;62.70;;;;;;5055762;28;20095;-67
2022/05/12 12:08:09;;;;;;;10.73;5.45;;;26.90;61.40;;;;;;4995039;28;20459;-67
2022/05/12 12:10:40;;;;;;;7.47;4.75;;;26.50;62.20;;;;;;4995469;28;20104;-67
2022/05/12 12:13:33;;;;;;;12.25;5.40;;;26.10;62.80;;;;;;5029734;28;20059;-67
2022/05/12 12:16:04;;;;;;;13.05;6.15;;;26.70;61.00;;;;;;5056035;28;20021;-67
2022/05/12 12:18:30;;;;;;;9.05;5.18;;;26.80;61.40;;;;;;5055702;28;20037;-67
2022/05/12 12:20:58;;;;;;;9.88;5.00;;;27.20;61.50;;;;;;5055689;28;20025;-67
2022/05/12 12:23:32;;;;;;;11.75;5.85;;;27.50;60.70;;;;;;5053265;28;20025;-67
2022/05/12 12:26:10;;;;;;;10.88;5.20;;;26.90;60.10;;;;;;5056162;28;20382;-67
2022/05/12 12:28:41;;;;;;;8.93;4.93;;;26.80;61.10;;;;;;5054384;28;20414;-67
2022/05/12 12:31:35;;;;;;;10.27;4.80;;;26.60;61.10;;;;;;5055670;28;20393;-67
2022/05/12 12:34:01;;;;;;;;;;;27.10;62.70;;;;;;5055725;28;20052;-67
2022/05/12 12:36:29;;;;;;;10.43;5.05;;;27.10;61.20;;;;;;5055862;28;19909;-67
2022/05/12 12:38:55;;;;;;;7.60;5.07;;;27.60;61.30;;;;;;5054924;28;20075;-67
2022/05/12 12:41:33;;;;;;;9.38;4.55;;;27.60;60.50;;;;;;5055263;28;20060;-67
2022/05/12 12:44:14;;;;;;;10.77;5.30;;;27.70;61.10;;;;;;5051635;28;20029;-67
2022/05/12 12:47:02;;;;;;;8.57;4.90;;;27.60;59.70;;;;;;5055739;28;20021;-67
2022/05/12 12:49:29;;;;;;;10.35;5.22;;;27.50;59.70;;;;;;5055029;28;20613;-67
2022/05/12 12:52:08;;;;;;;9.93;5.22;;;27.20;60.00;;;;;;5055223;28;20017;-67
2022/05/12 12:57:38;;;;;;;9.43;5.07;;;27.80;59.10;;;;;;5055295;28;20052;-68
2022/05/12 13:00:07;;;;;;;;;;;27.80;59.80;;;;;;5055317;28;20025;-67
2022/05/12 13:02:42;;;;;;;7.47;4.63;;;27.30;60.00;;;;;;5054129;28;19921;-67
2022/05/12 13:05:08;;;;;;;12.10;5.30;;;27.40;61.30;;;;;;5054400;28;20033;-67
2022/05/12 13:07:36;;;;;;;8.93;4.82;;;27.90;59.20;;;;;;5054836;28;20033;-67
2022/05/12 13:10:13;;;;;;;8.18;4.75;;;28.20;58.80;;;;;;5055280;28;20049;-67
2022/05/12 13:12:38;;;;;;;12.15;4.82;;;28.30;58.60;;;;;;5054945;28;20025;-67
2022/05/12 13:15:18;;;;;;;8.18;4.93;;;28.00;58.20;;;;;;5056291;28;20032;-67
2022/05/12 13:17:49;;;;;;;9.63;4.70;;;28.10;57.80;;;;;;5056186;28;20104;-67
2022/05/12 13:20:21;;;;;;;10.27;4.28;;;27.30;59.00;;;;;;5054917;28;20438;-67
2022/05/12 13:22:56;;;;;;;10.00;4.70;;;27.20;60.60;;;;;;5055776;28;20117;-67
2022/05/12 13:25:28;;;;;;;8.15;4.20;;;27.80;58.70;;;;;;5056144;28;20032;-67
2022/05/12 13:27:57;;;;;;;7.35;4.43;;;28.10;58.10;;;;;;5055812;28;20025;-66
2022/05/12 13:30:44;;;;;;;7.47;4.20;;;28.60;58.10;;;;;;5055706;28;20086;-66
2022/05/12 13:33:25;;;;;;;9.07;4.78;;;29.00;56.50;;;;;;5055751;28;20063;-66
2022/05/12 13:36:08;;;;;;;9.40;4.70;;;28.80;55.60;;;;;;5054975;28;20295;-66